aviador You're here:

KEWN Decoded Metar

NEW BERN in NC, USA
Report Time2018-05-27 00:54:00
UTC Time2018-05-27 01:07:59
Flight Rules vfr VFR
Wind190° at 07 kt
W.Decomp.*RWY 22: 6.5 kt HW 2.6 kt LCW
RWY 14: 3.7 kt HW 5.9 kt RCW
W.Rank190° ranks 5
Current wind is above 190° avg. (6.8)
Visibility9999 m
Phenomena:N/A
Clouds:Few 006 Hf
Expected CloudBase > 1,200 ft AGL from Temp-Dew spread
CeilingNone
Temp24°C (ISA +9)
Dew Point21°C (83% RH)
QNH1015 hPa
Density Alt1,316 ft
Elevation10 ft
Report Wrong Elevation
Raw Report
KEWN 270054Z 19007KT 10SM FEW006 24/21 A2998 RMK AO2 SLP151
T02390211 $=

Extra information for KEWN:More info

Metar Taf Metar & Taf Last 4 Metars F.Rules Stats Wind Profile Meteogram Temp Stats Airport Information Weather charts Add Link Nearby VenuesMetar ALERT Operation Metar Decoded Social comments

AIRNAV info for KEWN